sensor_id;sensor_type;location;lat;lon;timestamp;P1;durP1;ratioP1;P2;durP2;ratioP2
75012;SDS011;63567;49.956;20.130;2022-12-20T00:01:34;14.77;;;6.40;;
75012;SDS011;63567;49.956;20.130;2022-12-20T00:04:01;14.37;;;5.87;;
75012;SDS011;63567;49.956;20.130;2022-12-20T00:06:27;13.65;;;6.00;;
75012;SDS011;63567;49.956;20.130;2022-12-20T00:08:54;15.02;;;6.13;;
75012;SDS011;63567;49.956;20.130;2022-12-20T00:11:21;16.80;;;6.35;;
75012;SDS011;63567;49.956;20.130;2022-12-20T00:13:46;15.85;;;6.00;;
75012;SDS011;63567;49.956;20.130;2022-12-20T00:16:15;14.63;;;6.00;;
75012;SDS011;63567;49.956;20.130;2022-12-20T00:18:45;13.13;;;5.68;;
75012;SDS011;63567;49.956;20.130;2022-12-20T00:21:15;15.65;;;5.85;;
75012;SDS011;63567;49.956;20.130;2022-12-20T00:23:40;14.90;;;6.53;;
75012;SDS011;63567;49.956;20.130;2022-12-20T00:26:07;16.13;;;6.17;;
75012;SDS011;63567;49.956;20.130;2022-12-20T00:28:37;17.48;;;6.70;;
75012;SDS011;63567;49.956;20.130;2022-12-20T00:31:04;16.92;;;6.47;;
75012;SDS011;63567;49.956;20.130;2022-12-20T00:33:31;15.27;;;7.00;;
75012;SDS011;63567;49.956;20.130;2022-12-20T00:35:57;15.57;;;6.47;;
75012;SDS011;63567;49.956;20.130;2022-12-20T00:38:23;14.95;;;6.22;;
75012;SDS011;63567;49.956;20.130;2022-12-20T00:41:09;13.27;;;6.20;;
75012;SDS011;63567;49.956;20.130;2022-12-20T00:43:37;15.05;;;6.68;;
75012;SDS011;63567;49.956;20.130;2022-12-20T00:46:04;16.00;;;6.28;;
75012;SDS011;63567;49.956;20.130;2022-12-20T00:48:30;16.30;;;7.05;;
75012;SDS011;63567;49.956;20.130;2022-12-20T00:51:00;15.18;;;7.03;;
75012;SDS011;63567;49.956;20.130;2022-12-20T00:53:27;15.43;;;6.72;;
75012;SDS011;63567;49.956;20.130;2022-12-20T00:55:52;17.10;;;7.68;;
75012;SDS011;63567;49.956;20.130;2022-12-20T00:58:18;16.80;;;6.53;;
75012;SDS011;63567;49.956;20.130;2022-12-20T01:00:43;15.05;;;6.05;;
75012;SDS011;63567;49.956;20.130;2022-12-20T01:03:08;14.35;;;6.30;;
75012;SDS011;63567;49.956;20.130;2022-12-20T01:05:34;13.03;;;5.97;;
75012;SDS011;63567;49.956;20.130;2022-12-20T01:07:59;14.13;;;6.18;;
75012;SDS011;63567;49.956;20.130;2022-12-20T01:10:25;15.67;;;6.37;;
75012;SDS011;63567;49.956;20.130;2022-12-20T01:12:51;16.40;;;6.50;;
75012;SDS011;63567;49.956;20.130;2022-12-20T01:15:16;14.75;;;6.75;;
75012;SDS011;63567;49.956;20.130;2022-12-20T01:17:42;14.67;;;5.67;;
75012;SDS011;63567;49.956;20.130;2022-12-20T01:20:07;13.97;;;6.07;;
75012;SDS011;63567;49.956;20.130;2022-12-20T01:22:33;12.07;;;5.45;;
75012;SDS011;63567;49.956;20.130;2022-12-20T01:24:58;13.07;;;5.43;;
75012;SDS011;63567;49.956;20.130;2022-12-20T01:27:24;11.97;;;5.40;;
75012;SDS011;63567;49.956;20.130;2022-12-20T01:29:49;13.57;;;5.03;;
75012;SDS011;63567;49.956;20.130;2022-12-20T01:32:15;12.25;;;4.53;;
75012;SDS011;63567;49.956;20.130;2022-12-20T01:34:40;12.93;;;4.90;;
75012;SDS011;63567;49.956;20.130;2022-12-20T01:37:05;11.67;;;4.53;;
75012;SDS011;63567;49.956;20.130;2022-12-20T01:39:31;11.80;;;4.57;;
75012;SDS011;63567;49.956;20.130;2022-12-20T01:41:56;11.77;;;5.03;;
75012;SDS011;63567;49.956;20.130;2022-12-20T01:46:47;11.90;;;4.93;;
75012;SDS011;63567;49.956;20.130;2022-12-20T01:52:03;13.48;;;5.40;;
75012;SDS011;63567;49.956;20.130;2022-12-20T01:54:42;14.27;;;6.13;;
75012;SDS011;63567;49.956;20.130;2022-12-20T01:57:24;11.57;;;4.50;;
75012;SDS011;63567;49.956;20.130;2022-12-20T01:59:56;13.23;;;5.22;;
75012;SDS011;63567;49.956;20.130;2022-12-20T02:02:22;14.40;;;5.70;;
75012;SDS011;63567;49.956;20.130;2022-12-20T02:04:48;12.20;;;5.30;;
75012;SDS011;63567;49.956;20.130;2022-12-20T02:07:16;11.20;;;5.18;;
75012;SDS011;63567;49.956;20.130;2022-12-20T02:09:44;10.95;;;4.90;;
75012;SDS011;63567;49.956;20.130;2022-12-20T02:12:10;12.13;;;4.95;;
75012;SDS011;63567;49.956;20.130;2022-12-20T02:30:50;8.90;;;3.78;;
75012;SDS011;63567;49.956;20.130;2022-12-20T02:33:18;9.85;;;4.20;;
75012;SDS011;63567;49.956;20.130;2022-12-20T02:38:27;9.27;;;3.70;;
75012;SDS011;63567;49.956;20.130;2022-12-20T02:40:58;7.22;;;3.10;;
75012;SDS011;63567;49.956;20.130;2022-12-20T02:43:45;6.95;;;3.08;;
75012;SDS011;63567;49.956;20.130;2022-12-20T02:46:31;9.70;;;3.50;;
75012;SDS011;63567;49.956;20.130;2022-12-20T02:49:00;5.90;;;2.85;;
75012;SDS011;63567;49.956;20.130;2022-12-20T02:51:27;8.32;;;3.78;;
75012;SDS011;63567;49.956;20.130;2022-12-20T02:53:56;7.75;;;3.10;;
75012;SDS011;63567;49.956;20.130;2022-12-20T02:56:34;7.07;;;3.20;;
75012;SDS011;63567;49.956;20.130;2022-12-20T02:59:10;9.98;;;3.10;;
75012;SDS011;63567;49.956;20.130;2022-12-20T03:01:44;7.40;;;3.40;;
75012;SDS011;63567;49.956;20.130;2022-12-20T03:04:14;7.90;;;3.25;;
75012;SDS011;63567;49.956;20.130;2022-12-20T03:09:21;9.43;;;3.53;;
75012;SDS011;63567;49.956;20.130;2022-12-20T03:11:47;7.72;;;3.67;;
75012;SDS011;63567;49.956;20.130;2022-12-20T03:14:12;8.80;;;3.73;;
75012;SDS011;63567;49.956;20.130;2022-12-20T03:16:37;8.50;;;3.50;;
75012;SDS011;63567;49.956;20.130;2022-12-20T03:19:03;7.67;;;3.67;;
75012;SDS011;63567;49.956;20.130;2022-12-20T03:21:31;10.47;;;4.03;;
75012;SDS011;63567;49.956;20.130;2022-12-20T03:23:56;8.38;;;3.88;;
75012;SDS011;63567;49.956;20.130;2022-12-20T03:26:22;7.53;;;3.37;;
75012;SDS011;63567;49.956;20.130;2022-12-20T03:28:47;11.03;;;4.10;;
75012;SDS011;63567;49.956;20.130;2022-12-20T03:31:12;11.67;;;4.40;;
75012;SDS011;63567;49.956;20.130;2022-12-20T03:33:37;9.87;;;4.03;;
75012;SDS011;63567;49.956;20.130;2022-12-20T03:36:03;9.90;;;3.50;;
75012;SDS011;63567;49.956;20.130;2022-12-20T03:38:28;10.52;;;4.40;;
75012;SDS011;63567;49.956;20.130;2022-12-20T03:40:53;9.10;;;3.60;;
75012;SDS011;63567;49.956;20.130;2022-12-20T03:43:19;10.17;;;4.00;;
75012;SDS011;63567;49.956;20.130;2022-12-20T03:45:44;9.03;;;3.83;;
75012;SDS011;63567;49.956;20.130;2022-12-20T03:48:09;10.30;;;4.35;;
75012;SDS011;63567;49.956;20.130;2022-12-20T03:50:34;12.90;;;5.60;;
75012;SDS011;63567;49.956;20.130;2022-12-20T03:53:03;11.10;;;4.28;;
75012;SDS011;63567;49.956;20.130;2022-12-20T03:55:28;12.90;;;6.30;;
75012;SDS011;63567;49.956;20.130;2022-12-20T03:57:53;14.77;;;5.53;;
75012;SDS011;63567;49.956;20.130;2022-12-20T04:00:19;13.40;;;5.00;;
75012;SDS011;63567;49.956;20.130;2022-12-20T04:02:44;9.75;;;4.50;;
75012;SDS011;63567;49.956;20.130;2022-12-20T04:05:10;10.23;;;4.28;;
75012;SDS011;63567;49.956;20.130;2022-12-20T04:07:35;11.23;;;4.37;;
75012;SDS011;63567;49.956;20.130;2022-12-20T04:10:00;11.27;;;5.47;;
75012;SDS011;63567;49.956;20.130;2022-12-20T04:12:25;12.00;;;5.53;;
75012;SDS011;63567;49.956;20.130;2022-12-20T04:14:51;12.57;;;5.37;;
75012;SDS011;63567;49.956;20.130;2022-12-20T04:17:16;11.13;;;4.90;;
75012;SDS011;63567;49.956;20.130;2022-12-20T04:19:43;10.65;;;4.85;;
75012;SDS011;63567;49.956;20.130;2022-12-20T04:22:09;10.87;;;5.27;;
75012;SDS011;63567;49.956;20.130;2022-12-20T04:24:34;13.60;;;5.10;;
75012;SDS011;63567;49.956;20.130;2022-12-20T04:26:59;12.77;;;5.00;;
75012;SDS011;63567;49.956;20.130;2022-12-20T04:29:24;11.70;;;5.00;;
75012;SDS011;63567;49.956;20.130;2022-12-20T04:31:50;9.68;;;4.07;;
75012;SDS011;63567;49.956;20.130;2022-12-20T04:34:15;9.50;;;3.80;;
75012;SDS011;63567;49.956;20.130;2022-12-20T04:36:40;10.13;;;4.17;;
75012;SDS011;63567;49.956;20.130;2022-12-20T04:39:09;10.30;;;4.40;;
75012;SDS011;63567;49.956;20.130;2022-12-20T04:41:34;9.10;;;3.67;;
75012;SDS011;63567;49.956;20.130;2022-12-20T04:43:59;9.13;;;3.77;;
75012;SDS011;63567;49.956;20.130;2022-12-20T04:46:25;11.33;;;4.93;;
75012;SDS011;63567;49.956;20.130;2022-12-20T04:48:51;12.73;;;5.70;;
75012;SDS011;63567;49.956;20.130;2022-12-20T04:51:16;15.00;;;6.03;;
75012;SDS011;63567;49.956;20.130;2022-12-20T04:53:42;12.65;;;6.18;;
75012;SDS011;63567;49.956;20.130;2022-12-20T04:56:12;14.43;;;6.20;;
75012;SDS011;63567;49.956;20.130;2022-12-20T04:58:42;14.32;;;6.43;;
75012;SDS011;63567;49.956;20.130;2022-12-20T05:01:08;15.38;;;7.20;;
75012;SDS011;63567;49.956;20.130;2022-12-20T05:03:33;16.08;;;8.02;;
75012;SDS011;63567;49.956;20.130;2022-12-20T05:05:58;18.83;;;7.90;;
75012;SDS011;63567;49.956;20.130;2022-12-20T05:08:24;13.93;;;5.75;;
75012;SDS011;63567;49.956;20.130;2022-12-20T05:10:49;13.50;;;5.93;;
75012;SDS011;63567;49.956;20.130;2022-12-20T05:13:15;13.70;;;5.93;;
75012;SDS011;63567;49.956;20.130;2022-12-20T05:15:40;15.33;;;6.93;;
75012;SDS011;63567;49.956;20.130;2022-12-20T05:18:06;16.17;;;6.75;;
75012;SDS011;63567;49.956;20.130;2022-12-20T05:20:31;13.53;;;6.37;;
75012;SDS011;63567;49.956;20.130;2022-12-20T05:22:57;10.97;;;4.87;;
75012;SDS011;63567;49.956;20.130;2022-12-20T05:25:41;11.05;;;4.88;;
75012;SDS011;63567;49.956;20.130;2022-12-20T05:28:28;10.20;;;5.47;;
75012;SDS011;63567;49.956;20.130;2022-12-20T05:30:56;11.95;;;5.70;;
75012;SDS011;63567;49.956;20.130;2022-12-20T05:33:22;14.63;;;5.75;;
75012;SDS011;63567;49.956;20.130;2022-12-20T05:35:47;14.27;;;6.63;;
75012;SDS011;63567;49.956;20.130;2022-12-20T05:38:12;17.87;;;7.63;;
75012;SDS011;63567;49.956;20.130;2022-12-20T05:40:38;17.67;;;8.67;;
75012;SDS011;63567;49.956;20.130;2022-12-20T05:43:04;24.63;;;10.57;;
75012;SDS011;63567;49.956;20.130;2022-12-20T05:45:30;26.42;;;10.30;;
75012;SDS011;63567;49.956;20.130;2022-12-20T05:47:55;29.98;;;12.70;;
75012;SDS011;63567;49.956;20.130;2022-12-20T05:50:20;28.73;;;12.87;;
75012;SDS011;63567;49.956;20.130;2022-12-20T05:52:46;27.08;;;13.25;;
75012;SDS011;63567;49.956;20.130;2022-12-20T05:55:11;32.03;;;13.63;;
75012;SDS011;63567;49.956;20.130;2022-12-20T05:57:38;26.60;;;13.00;;
75012;SDS011;63567;49.956;20.130;2022-12-20T06:00:04;30.70;;;13.00;;
75012;SDS011;63567;49.956;20.130;2022-12-20T06:02:30;28.08;;;12.75;;
75012;SDS011;63567;49.956;20.130;2022-12-20T06:04:55;28.77;;;12.75;;
75012;SDS011;63567;49.956;20.130;2022-12-20T06:07:22;27.75;;;12.52;;
75012;SDS011;63567;49.956;20.130;2022-12-20T06:09:49;26.17;;;11.30;;
75012;SDS011;63567;49.956;20.130;2022-12-20T06:12:15;26.00;;;11.60;;
75012;SDS011;63567;49.956;20.130;2022-12-20T06:14:40;29.10;;;12.23;;
75012;SDS011;63567;49.956;20.130;2022-12-20T06:17:05;25.33;;;11.60;;
75012;SDS011;63567;49.956;20.130;2022-12-20T06:19:31;28.20;;;11.43;;
75012;SDS011;63567;49.956;20.130;2022-12-20T06:21:56;28.05;;;12.10;;
75012;SDS011;63567;49.956;20.130;2022-12-20T06:24:21;26.57;;;11.87;;
75012;SDS011;63567;49.956;20.130;2022-12-20T06:26:49;25.02;;;10.13;;
75012;SDS011;63567;49.956;20.130;2022-12-20T06:29:18;23.15;;;10.75;;
75012;SDS011;63567;49.956;20.130;2022-12-20T06:31:45;24.38;;;11.40;;
75012;SDS011;63567;49.956;20.130;2022-12-20T06:34:11;24.73;;;10.90;;
75012;SDS011;63567;49.956;20.130;2022-12-20T06:36:36;22.65;;;9.27;;
75012;SDS011;63567;49.956;20.130;2022-12-20T06:39:02;23.10;;;9.73;;
75012;SDS011;63567;49.956;20.130;2022-12-20T06:41:27;25.40;;;10.32;;
75012;SDS011;63567;49.956;20.130;2022-12-20T06:43:53;23.97;;;9.80;;
75012;SDS011;63567;49.956;20.130;2022-12-20T06:46:18;22.93;;;10.53;;
75012;SDS011;63567;49.956;20.130;2022-12-20T06:48:44;23.50;;;9.50;;
75012;SDS011;63567;49.956;20.130;2022-12-20T06:51:10;22.63;;;9.93;;
75012;SDS011;63567;49.956;20.130;2022-12-20T06:53:35;21.63;;;8.97;;
75012;SDS011;63567;49.956;20.130;2022-12-20T06:56:00;21.17;;;9.37;;
75012;SDS011;63567;49.956;20.130;2022-12-20T06:58:26;20.63;;;9.30;;
75012;SDS011;63567;49.956;20.130;2022-12-20T07:00:51;22.73;;;9.67;;
75012;SDS011;63567;49.956;20.130;2022-12-20T07:03:16;19.37;;;9.80;;
75012;SDS011;63567;49.956;20.130;2022-12-20T07:05:41;29.60;;;11.50;;
75012;SDS011;63567;49.956;20.130;2022-12-20T07:08:07;30.13;;;14.40;;
75012;SDS011;63567;49.956;20.130;2022-12-20T07:10:32;28.85;;;13.00;;
75012;SDS011;63567;49.956;20.130;2022-12-20T07:12:59;25.65;;;11.23;;
75012;SDS011;63567;49.956;20.130;2022-12-20T07:15:24;25.87;;;11.63;;
75012;SDS011;63567;49.956;20.130;2022-12-20T07:17:49;25.35;;;11.10;;
75012;SDS011;63567;49.956;20.130;2022-12-20T07:20:15;27.58;;;12.63;;
75012;SDS011;63567;49.956;20.130;2022-12-20T07:22:41;26.10;;;11.77;;
75012;SDS011;63567;49.956;20.130;2022-12-20T07:25:06;25.05;;;11.77;;
75012;SDS011;63567;49.956;20.130;2022-12-20T07:27:32;26.65;;;11.80;;
75012;SDS011;63567;49.956;20.130;2022-12-20T07:29:57;25.53;;;11.47;;
75012;SDS011;63567;49.956;20.130;2022-12-20T07:32:24;27.98;;;11.77;;
75012;SDS011;63567;49.956;20.130;2022-12-20T07:34:50;24.40;;;11.13;;
75012;SDS011;63567;49.956;20.130;2022-12-20T07:37:15;26.23;;;11.47;;
75012;SDS011;63567;49.956;20.130;2022-12-20T07:39:40;23.57;;;10.50;;
75012;SDS011;63567;49.956;20.130;2022-12-20T07:42:06;22.00;;;10.07;;
75012;SDS011;63567;49.956;20.130;2022-12-20T07:44:32;20.92;;;9.63;;
75012;SDS011;63567;49.956;20.130;2022-12-20T07:46:58;20.90;;;9.20;;
75012;SDS011;63567;49.956;20.130;2022-12-20T07:49:23;20.35;;;9.68;;
75012;SDS011;63567;49.956;20.130;2022-12-20T07:51:49;25.40;;;10.47;;
75012;SDS011;63567;49.956;20.130;2022-12-20T07:54:19;22.40;;;9.90;;
75012;SDS011;63567;49.956;20.130;2022-12-20T07:56:50;23.45;;;11.48;;
75012;SDS011;63567;49.956;20.130;2022-12-20T07:59:19;23.75;;;11.50;;
75012;SDS011;63567;49.956;20.130;2022-12-20T08:01:51;25.63;;;11.57;;
75012;SDS011;63567;49.956;20.130;2022-12-20T08:04:18;27.35;;;13.43;;
75012;SDS011;63567;49.956;20.130;2022-12-20T08:06:45;33.47;;;15.05;;
75012;SDS011;63567;49.956;20.130;2022-12-20T08:09:12;29.63;;;14.73;;
75012;SDS011;63567;49.956;20.130;2022-12-20T08:11:38;31.90;;;14.65;;
75012;SDS011;63567;49.956;20.130;2022-12-20T08:14:06;26.08;;;11.70;;
75012;SDS011;63567;49.956;20.130;2022-12-20T08:16:32;24.42;;;10.65;;
75012;SDS011;63567;49.956;20.130;2022-12-20T08:18:57;20.85;;;10.25;;
75012;SDS011;63567;49.956;20.130;2022-12-20T08:21:25;23.77;;;10.73;;
75012;SDS011;63567;49.956;20.130;2022-12-20T08:23:50;24.70;;;11.45;;
75012;SDS011;63567;49.956;20.130;2022-12-20T08:26:16;26.23;;;11.90;;
75012;SDS011;63567;49.956;20.130;2022-12-20T08:28:46;25.77;;;12.05;;
75012;SDS011;63567;49.956;20.130;2022-12-20T08:31:13;27.83;;;10.75;;
75012;SDS011;63567;49.956;20.130;2022-12-20T08:33:39;21.33;;;9.95;;
75012;SDS011;63567;49.956;20.130;2022-12-20T08:36:06;26.07;;;11.30;;
75012;SDS011;63567;49.956;20.130;2022-12-20T08:38:36;28.77;;;12.80;;
75012;SDS011;63567;49.956;20.130;2022-12-20T08:41:02;31.27;;;13.38;;
75012;SDS011;63567;49.956;20.130;2022-12-20T08:43:30;26.90;;;11.80;;
75012;SDS011;63567;49.956;20.130;2022-12-20T08:45:56;25.48;;;11.38;;
75012;SDS011;63567;49.956;20.130;2022-12-20T08:48:24;26.90;;;11.43;;
75012;SDS011;63567;49.956;20.130;2022-12-20T08:50:56;20.88;;;10.30;;
75012;SDS011;63567;49.956;20.130;2022-12-20T08:53:24;24.60;;;11.48;;
75012;SDS011;63567;49.956;20.130;2022-12-20T08:55:50;27.23;;;11.77;;
75012;SDS011;63567;49.956;20.130;2022-12-20T08:58:26;27.95;;;11.88;;
75012;SDS011;63567;49.956;20.130;2022-12-20T09:00:52;26.07;;;12.37;;
75012;SDS011;63567;49.956;20.130;2022-12-20T09:03:21;29.33;;;12.60;;
75012;SDS011;63567;49.956;20.130;2022-12-20T09:05:46;32.97;;;14.10;;
75012;SDS011;63567;49.956;20.130;2022-12-20T09:08:13;34.40;;;15.02;;
75012;SDS011;63567;49.956;20.130;2022-12-20T09:10:39;30.05;;;13.07;;
75012;SDS011;63567;49.956;20.130;2022-12-20T09:13:14;25.75;;;11.65;;
75012;SDS011;63567;49.956;20.130;2022-12-20T09:15:53;25.88;;;13.10;;
75012;SDS011;63567;49.956;20.130;2022-12-20T09:18:18;25.63;;;12.10;;
75012;SDS011;63567;49.956;20.130;2022-12-20T09:20:45;25.13;;;12.10;;
75012;SDS011;63567;49.956;20.130;2022-12-20T09:23:13;27.08;;;12.40;;
75012;SDS011;63567;49.956;20.130;2022-12-20T09:25:38;29.50;;;13.03;;
75012;SDS011;63567;49.956;20.130;2022-12-20T09:28:04;26.37;;;14.00;;
75012;SDS011;63567;49.956;20.130;2022-12-20T09:30:29;27.42;;;12.20;;
75012;SDS011;63567;49.956;20.130;2022-12-20T09:32:55;22.20;;;11.40;;
75012;SDS011;63567;49.956;20.130;2022-12-20T09:35:21;26.45;;;12.52;;
75012;SDS011;63567;49.956;20.130;2022-12-20T09:37:46;27.60;;;12.52;;
75012;SDS011;63567;49.956;20.130;2022-12-20T09:40:16;27.40;;;11.63;;
75012;SDS011;63567;49.956;20.130;2022-12-20T09:42:43;29.95;;;12.60;;
75012;SDS011;63567;49.956;20.130;2022-12-20T09:45:08;26.10;;;11.70;;
75012;SDS011;63567;49.956;20.130;2022-12-20T09:47:43;23.27;;;11.85;;
75012;SDS011;63567;49.956;20.130;2022-12-20T09:50:12;24.70;;;12.55;;
75012;SDS011;63567;49.956;20.130;2022-12-20T09:58:25;21.85;;;11.38;;
75012;SDS011;63567;49.956;20.130;2022-12-20T10:01:03;25.08;;;12.55;;
75012;SDS011;63567;49.956;20.130;2022-12-20T10:03:39;26.58;;;13.13;;
75012;SDS011;63567;49.956;20.130;2022-12-20T10:09:19;25.10;;;13.23;;
75012;SDS011;63567;49.956;20.130;2022-12-20T10:18:19;28.48;;;13.60;;
75012;SDS011;63567;49.956;20.130;2022-12-20T10:26:06;28.55;;;13.07;;
75012;SDS011;63567;49.956;20.130;2022-12-20T10:28:34;23.63;;;11.45;;
75012;SDS011;63567;49.956;20.130;2022-12-20T10:31:01;26.20;;;12.38;;
75012;SDS011;63567;49.956;20.130;2022-12-20T10:33:30;25.00;;;11.77;;
75012;SDS011;63567;49.956;20.130;2022-12-20T10:36:15;27.48;;;11.77;;
75012;SDS011;63567;49.956;20.130;2022-12-20T10:38:53;24.20;;;11.77;;
75012;SDS011;63567;49.956;20.130;2022-12-20T10:41:21;26.83;;;12.98;;
75012;SDS011;63567;49.956;20.130;2022-12-20T10:44:02;26.88;;;12.18;;
75012;SDS011;63567;49.956;20.130;2022-12-20T10:46:35;27.88;;;13.52;;
75012;SDS011;63567;49.956;20.130;2022-12-20T10:52:01;37.47;;;19.23;;
75012;SDS011;63567;49.956;20.130;2022-12-20T10:54:35;37.42;;;17.85;;
75012;SDS011;63567;49.956;20.130;2022-12-20T10:59:41;28.85;;;13.13;;
75012;SDS011;63567;49.956;20.130;2022-12-20T11:02:20;26.85;;;12.48;;
75012;SDS011;63567;49.956;20.130;2022-12-20T11:07:34;25.83;;;11.52;;
75012;SDS011;63567;49.956;20.130;2022-12-20T11:10:08;28.05;;;12.43;;
75012;SDS011;63567;49.956;20.130;2022-12-20T11:12:58;24.85;;;11.55;;
75012;SDS011;63567;49.956;20.130;2022-12-20T11:17:59;22.60;;;10.98;;
75012;SDS011;63567;49.956;20.130;2022-12-20T11:20:34;18.38;;;9.18;;
75012;SDS011;63567;49.956;20.130;2022-12-20T11:36:02;20.92;;;10.43;;
75012;SDS011;63567;49.956;20.130;2022-12-20T11:43:46;27.13;;;13.00;;
75012;SDS011;63567;49.956;20.130;2022-12-20T11:46:39;24.70;;;10.73;;
75012;SDS011;63567;49.956;20.130;2022-12-20T11:54:46;27.70;;;13.75;;
75012;SDS011;63567;49.956;20.130;2022-12-20T11:57:17;29.15;;;14.02;;
75012;SDS011;63567;49.956;20.130;2022-12-20T11:59:51;36.50;;;18.50;;
75012;SDS011;63567;49.956;20.130;2022-12-20T12:05:00;38.22;;;18.27;;
75012;SDS011;63567;49.956;20.130;2022-12-20T12:07:30;37.42;;;17.65;;
75012;SDS011;63567;49.956;20.130;2022-12-20T12:12:23;46.67;;;19.67;;
75012;SDS011;63567;49.956;20.130;2022-12-20T12:23:04;44.88;;;17.42;;
75012;SDS011;63567;49.956;20.130;2022-12-20T12:25:37;45.20;;;21.67;;
75012;SDS011;63567;49.956;20.130;2022-12-20T12:28:02;38.83;;;17.90;;
75012;SDS011;63567;49.956;20.130;2022-12-20T12:30:29;36.03;;;15.85;;
75012;SDS011;63567;49.956;20.130;2022-12-20T12:33:04;33.88;;;14.30;;
75012;SDS011;63567;49.956;20.130;2022-12-20T12:35:44;38.30;;;16.85;;
75012;SDS011;63567;49.956;20.130;2022-12-20T12:44:21;43.60;;;18.17;;
75012;SDS011;63567;49.956;20.130;2022-12-20T12:47:13;34.97;;;15.57;;
75012;SDS011;63567;49.956;20.130;2022-12-20T12:49:45;38.67;;;17.25;;
75012;SDS011;63567;49.956;20.130;2022-12-20T12:52:25;40.15;;;17.77;;
75012;SDS011;63567;49.956;20.130;2022-12-20T12:54:54;41.45;;;18.92;;
75012;SDS011;63567;49.956;20.130;2022-12-20T12:57:19;42.70;;;19.02;;
75012;SDS011;63567;49.956;20.130;2022-12-20T12:59:45;33.85;;;15.45;;
75012;SDS011;63567;49.956;20.130;2022-12-20T13:09:59;38.65;;;17.35;;
75012;SDS011;63567;49.956;20.130;2022-12-20T13:25:33;44.60;;;19.08;;
75012;SDS011;63567;49.956;20.130;2022-12-20T13:30:46;44.13;;;18.55;;
75012;SDS011;63567;49.956;20.130;2022-12-20T13:33:22;45.88;;;20.15;;
75012;SDS011;63567;49.956;20.130;2022-12-20T13:36:03;43.55;;;19.58;;
75012;SDS011;63567;49.956;20.130;2022-12-20T13:38:54;46.03;;;19.08;;
75012;SDS011;63567;49.956;20.130;2022-12-20T13:43:55;41.22;;;17.65;;
75012;SDS011;63567;49.956;20.130;2022-12-20T13:46:40;42.55;;;17.67;;
75012;SDS011;63567;49.956;20.130;2022-12-20T13:49:08;41.25;;;17.40;;
75012;SDS011;63567;49.956;20.130;2022-12-20T13:51:36;39.80;;;16.58;;
75012;SDS011;63567;49.956;20.130;2022-12-20T13:54:03;43.77;;;18.23;;
75012;SDS011;63567;49.956;20.130;2022-12-20T13:56:32;43.85;;;18.17;;
75012;SDS011;63567;49.956;20.130;2022-12-20T14:01:55;43.53;;;20.13;;
75012;SDS011;63567;49.956;20.130;2022-12-20T14:04:27;48.03;;;19.95;;
75012;SDS011;63567;49.956;20.130;2022-12-20T14:07:04;53.53;;;21.23;;
75012;SDS011;63567;49.956;20.130;2022-12-20T14:12:03;41.13;;;17.67;;
75012;SDS011;63567;49.956;20.130;2022-12-20T14:14:35;46.30;;;19.23;;
75012;SDS011;63567;49.956;20.130;2022-12-20T14:17:19;43.97;;;18.70;;
75012;SDS011;63567;49.956;20.130;2022-12-20T14:22:51;48.15;;;21.13;;
75012;SDS011;63567;49.956;20.130;2022-12-20T14:25:37;42.65;;;19.00;;
75012;SDS011;63567;49.956;20.130;2022-12-20T14:28:29;44.88;;;19.35;;
75012;SDS011;63567;49.956;20.130;2022-12-20T14:30:59;44.90;;;18.98;;
75012;SDS011;63567;49.956;20.130;2022-12-20T14:36:07;40.25;;;17.45;;
75012;SDS011;63567;49.956;20.130;2022-12-20T14:38:32;40.95;;;17.17;;
75012;SDS011;63567;49.956;20.130;2022-12-20T14:40:57;39.50;;;16.03;;
75012;SDS011;63567;49.956;20.130;2022-12-20T14:43:25;36.72;;;16.40;;
75012;SDS011;63567;49.956;20.130;2022-12-20T14:49:06;43.92;;;17.70;;
75012;SDS011;63567;49.956;20.130;2022-12-20T14:51:45;49.08;;;19.58;;
75012;SDS011;63567;49.956;20.130;2022-12-20T14:54:18;42.92;;;19.08;;
75012;SDS011;63567;49.956;20.130;2022-12-20T14:56:50;41.83;;;16.77;;
75012;SDS011;63567;49.956;20.130;2022-12-20T14:59:21;38.78;;;15.30;;
75012;SDS011;63567;49.956;20.130;2022-12-20T15:01:50;41.10;;;16.65;;
75012;SDS011;63567;49.956;20.130;2022-12-20T15:04:29;37.03;;;16.13;;
75012;SDS011;63567;49.956;20.130;2022-12-20T15:06:57;35.90;;;15.95;;
75012;SDS011;63567;49.956;20.130;2022-12-20T15:09:23;39.63;;;16.08;;
75012;SDS011;63567;49.956;20.130;2022-12-20T15:11:48;36.25;;;16.80;;
75012;SDS011;63567;49.956;20.130;2022-12-20T15:14:35;47.55;;;18.27;;
75012;SDS011;63567;49.956;20.130;2022-12-20T15:17:01;46.03;;;18.38;;
75012;SDS011;63567;49.956;20.130;2022-12-20T15:19:29;36.33;;;16.63;;
75012;SDS011;63567;49.956;20.130;2022-12-20T15:21:56;43.78;;;18.38;;
75012;SDS011;63567;49.956;20.130;2022-12-20T15:24:25;37.35;;;16.42;;
75012;SDS011;63567;49.956;20.130;2022-12-20T15:26:51;40.30;;;15.52;;
75012;SDS011;63567;49.956;20.130;2022-12-20T15:29:18;42.83;;;15.82;;
75012;SDS011;63567;49.956;20.130;2022-12-20T15:31:45;40.45;;;16.00;;
75012;SDS011;63567;49.956;20.130;2022-12-20T15:34:17;36.13;;;14.88;;
75012;SDS011;63567;49.956;20.130;2022-12-20T15:36:55;37.13;;;15.98;;
75012;SDS011;63567;49.956;20.130;2022-12-20T15:39:23;38.67;;;16.63;;
75012;SDS011;63567;49.956;20.130;2022-12-20T15:41:49;42.03;;;16.53;;
75012;SDS011;63567;49.956;20.130;2022-12-20T15:44:16;49.05;;;19.77;;
75012;SDS011;63567;49.956;20.130;2022-12-20T15:46:45;49.60;;;19.67;;
75012;SDS011;63567;49.956;20.130;2022-12-20T15:49:14;43.85;;;20.30;;
75012;SDS011;63567;49.956;20.130;2022-12-20T15:51:40;47.90;;;19.13;;
75012;SDS011;63567;49.956;20.130;2022-12-20T15:54:19;43.85;;;18.08;;
75012;SDS011;63567;49.956;20.130;2022-12-20T15:56:48;40.85;;;17.83;;
75012;SDS011;63567;49.956;20.130;2022-12-20T15:59:14;44.65;;;17.80;;
75012;SDS011;63567;49.956;20.130;2022-12-20T16:01:39;40.23;;;17.43;;
75012;SDS011;63567;49.956;20.130;2022-12-20T16:04:05;42.47;;;16.80;;
75012;SDS011;63567;49.956;20.130;2022-12-20T16:06:31;48.15;;;18.38;;
75012;SDS011;63567;49.956;20.130;2022-12-20T16:08:57;45.28;;;18.20;;
75012;SDS011;63567;49.956;20.130;2022-12-20T16:11:24;42.95;;;18.35;;
75012;SDS011;63567;49.956;20.130;2022-12-20T16:13:51;48.58;;;19.75;;
75012;SDS011;63567;49.956;20.130;2022-12-20T16:16:19;45.08;;;18.88;;
75012;SDS011;63567;49.956;20.130;2022-12-20T16:18:46;44.05;;;18.38;;
75012;SDS011;63567;49.956;20.130;2022-12-20T16:21:15;46.67;;;19.52;;
75012;SDS011;63567;49.956;20.130;2022-12-20T16:23:42;43.05;;;18.25;;
75012;SDS011;63567;49.956;20.130;2022-12-20T16:26:11;43.83;;;18.17;;
75012;SDS011;63567;49.956;20.130;2022-12-20T16:28:37;39.80;;;18.08;;
75012;SDS011;63567;49.956;20.130;2022-12-20T16:31:11;47.77;;;19.20;;
75012;SDS011;63567;49.956;20.130;2022-12-20T16:33:44;45.13;;;18.52;;
75012;SDS011;63567;49.956;20.130;2022-12-20T16:36:10;48.17;;;19.57;;
75012;SDS011;63567;49.956;20.130;2022-12-20T16:38:36;42.33;;;18.23;;
75012;SDS011;63567;49.956;20.130;2022-12-20T16:41:09;53.07;;;20.10;;
75012;SDS011;63567;49.956;20.130;2022-12-20T16:43:37;45.20;;;19.35;;
75012;SDS011;63567;49.956;20.130;2022-12-20T16:46:03;55.40;;;23.10;;